Time,TemperatureF,DewpointF,PressureIn,WindDirection,WindDirectionDegrees,WindSpeedMPH,WindSpeedGustMPH,Humidity,HourlyPrecipIn,Conditions,Clouds,dailyrainin,SoftwareType,DateUTC
2013-01-14 00:04:00,45.0,43.0,-100.00,NW,324,12.0,21.0,93,0.00,,,-99.99,,2013-01-14 05:04:00,
2013-01-14 00:12:00,44.0,41.0,-100.00,North,351,12.0,21.0,93,4.53,,,-99.99,,2013-01-14 05:12:00,
2013-01-14 00:22:00,44.0,41.0,-100.00,NW,323,11.0,21.0,93,0.00,,,-99.99,,2013-01-14 05:22:00,
2013-01-14 00:33:00,42.0,39.0,-100.00,NW,324,11.0,21.0,93,4.53,,,-99.99,,2013-01-14 05:33:00,
2013-01-14 00:43:00,41.0,37.0,-100.00,NW,323,7.0,21.0,91,0.00,,,-99.99,,2013-01-14 05:43:00,
2013-01-14 00:52:00,41.0,37.0,-100.00,NW,309,9.0,21.0,91,0.00,,,-99.99,,2013-01-14 05:52:00,
2013-01-14 01:03:00,41.0,37.0,-100.00,NW,309,11.0,21.0,91,0.00,,,-99.99,,2013-01-14 06:03:00,
2013-01-14 01:12:00,41.0,37.0,-100.00,NW,309,12.0,21.0,91,0.00,,,-99.99,,2013-01-14 06:12:00,
2013-01-14 01:22:00,43.0,39.0,-100.00,NNW,330,6.0,21.0,90,0.00,,,-99.99,,2013-01-14 06:22:00,
2013-01-14 01:33:00,43.0,39.0,-100.00,NW,307,4.0,21.0,90,0.00,,,-99.99,,2013-01-14 06:33:00,
2013-01-14 01:43:00,43.0,39.0,-100.00,North,357,4.0,21.0,90,0.00,,,-99.99,,2013-01-14 06:43:00,
2013-01-14 01:52:00,43.0,39.0,-100.00,NW,313,7.0,21.0,90,0.00,,,-99.99,,2013-01-14 06:52:00,
2013-01-14 02:02:00,43.0,39.0,-100.00,NW,324,6.0,21.0,89,0.00,,,-99.99,,2013-01-14 07:02:00,
2013-01-14 02:12:00,42.0,39.0,-100.00,NNW,328,4.0,21.0,89,0.00,,,-99.99,,2013-01-14 07:12:00,
2013-01-14 02:23:00,42.0,39.0,-100.00,NNW,328,2.0,21.0,89,0.00,,,-99.99,,2013-01-14 07:23:00,
2013-01-14 02:33:00,42.0,37.0,-100.00,North,354,4.0,21.0,88,0.00,,,-99.99,,2013-01-14 07:33:00,
2013-01-14 02:43:00,42.0,37.0,-100.00,NW,321,4.0,21.0,88,0.00,,,-99.99,,2013-01-14 07:43:00,
2013-01-14 02:52:00,43.0,39.0,-100.00,NW,323,2.0,2.0,88,0.00,,,-99.99,,2013-01-14 07:52:00,
2013-01-14 03:02:00,40.0,36.0,-100.00,NNW,327,2.0,2.0,85,0.00,,,-99.99,,2013-01-14 08:02:00,
2013-01-14 03:12:00,42.0,37.0,-100.00,WNW,290,2.0,2.0,86,0.00,,,-99.99,,2013-01-14 08:12:00,
2013-01-14 03:22:00,40.0,36.0,-100.00,NW,317,4.0,6.0,85,0.00,,,-99.99,,2013-01-14 08:22:00,
2013-01-14 03:33:00,43.0,37.0,-100.00,WNW,295,4.0,6.0,86,0.00,,,-99.99,,2013-01-14 08:33:00,
2013-01-14 03:42:00,42.0,37.0,-100.00,NW,313,4.0,6.0,85,0.00,,,-99.99,,2013-01-14 08:42:00,
2013-01-14 03:52:00,42.0,37.0,-100.00,NW,323,4.0,6.0,85,0.00,,,-99.99,,2013-01-14 08:52:00,
2013-01-14 04:03:00,42.0,37.0,-100.00,WNW,296,4.0,6.0,85,0.00,,,-99.99,,2013-01-14 09:03:00,
2013-01-14 04:12:00,42.0,37.0,-100.00,NW,306,4.0,6.0,85,0.00,,,-99.99,,2013-01-14 09:12:00,
2013-01-14 04:23:00,40.0,34.0,-100.00,NW,312,4.0,6.0,84,0.00,,,-99.99,,2013-01-14 09:23:00,
2013-01-14 04:33:00,39.0,34.0,-100.00,NW,307,7.0,12.0,81,0.00,,,-99.99,,2013-01-14 09:33:00,
2013-01-14 04:43:00,40.0,34.0,-100.00,WNW,303,9.0,12.0,81,0.00,,,-99.99,,2013-01-14 09:43:00,
2013-01-14 04:52:00,38.0,32.0,-100.00,WNW,302,11.0,14.0,80,0.00,,,-99.99,,2013-01-14 09:52:00,
2013-01-14 05:02:00,37.0,32.0,-100.00,NW,317,6.0,14.0,80,0.00,,,-99.99,,2013-01-14 10:02:00,
2013-01-14 05:12:00,40.0,34.0,-100.00,NW,320,4.0,14.0,82,0.00,,,-99.99,,2013-01-14 10:12:00,
2013-01-14 05:23:00,37.0,32.0,-100.00,North,358,4.0,14.0,81,0.00,,,-99.99,,2013-01-14 10:23:00,
2013-01-14 05:32:00,39.0,32.0,-100.00,WNW,297,4.0,14.0,81,0.00,,,-99.99,,2013-01-14 10:32:00,
2013-01-14 05:42:00,39.0,32.0,-100.00,NW,304,6.0,14.0,81,0.00,,,-99.99,,2013-01-14 10:42:00,
2013-01-14 05:52:00,36.0,32.0,-100.00,WNW,292,6.0,14.0,80,0.00,,,-99.99,,2013-01-14 10:52:00,
2013-01-14 06:02:00,36.0,30.0,-100.00,NNW,330,8.0,14.0,78,0.00,,,-99.99,,2013-01-14 11:02:00,
2013-01-14 06:12:00,35.0,30.0,-100.00,WNW,292,8.0,14.0,77,0.00,,,-99.99,,2013-01-14 11:12:00,
2013-01-14 06:22:00,35.0,28.0,-100.00,NNW,347,7.0,14.0,76,0.00,,,-99.99,,2013-01-14 11:22:00,
2013-01-14 06:33:00,35.0,28.0,-100.00,NNW,330,6.0,14.0,77,0.00,,,-99.99,,2013-01-14 11:33:00,
2013-01-14 06:43:00,34.0,28.0,-100.00,NNW,331,5.0,14.0,77,0.00,,,-99.99,,2013-01-14 11:43:00,
2013-01-14 06:53:00,34.0,28.0,-100.00,NNW,341,4.0,14.0,78,0.00,,,-99.99,,2013-01-14 11:53:00,
2013-01-14 07:03:00,34.0,28.0,-100.00,NW,317,5.0,14.0,77,0.00,,,-99.99,,2013-01-14 12:03:00,
2013-01-14 07:12:00,34.0,28.0,-100.00,NNW,336,4.0,14.0,77,0.00,,,-99.99,,2013-01-14 12:12:00,
2013-01-14 07:23:00,35.0,28.0,-100.00,NW,326,4.0,14.0,76,0.00,,,-99.99,,2013-01-14 12:23:00,
2013-01-14 07:33:00,33.0,27.0,-100.00,NW,314,4.0,14.0,76,0.00,,,-99.99,,2013-01-14 12:33:00,
2013-01-14 07:43:00,33.0,27.0,-100.00,NW,313,2.0,14.0,76,0.00,,,-99.99,,2013-01-14 12:43:00,
2013-01-14 07:53:00,34.0,28.0,-100.00,WNW,299,2.0,14.0,77,0.00,,,-99.99,,2013-01-14 12:53:00,
2013-01-14 08:03:00,33.0,27.0,-100.00,North,351,2.0,14.0,76,0.00,,,-99.99,,2013-01-14 13:03:00,
2013-01-14 08:13:00,35.0,30.0,-100.00,NW,326,1.0,14.0,77,0.00,,,-99.99,,2013-01-14 13:13:00,
2013-01-14 08:23:00,34.0,28.0,-100.00,NNW,333,3.0,14.0,76,0.00,,,-99.99,,2013-01-14 13:23:00,
2013-01-14 08:33:00,35.0,30.0,-100.00,NNW,330,4.0,14.0,78,0.00,,,-99.99,,2013-01-14 13:33:00,
2013-01-14 08:43:00,34.0,28.0,-100.00,NNW,333,4.0,14.0,78,0.00,,,-99.99,,2013-01-14 13:43:00,
2013-01-14 08:53:00,32.0,27.0,-100.00,NW,321,5.0,14.0,76,0.00,,,-99.99,,2013-01-14 13:53:00,
2013-01-14 09:03:00,32.0,27.0,-100.00,NNW,341,3.0,14.0,76,0.00,,,-99.99,,2013-01-14 14:03:00,
2013-01-14 09:13:00,32.0,27.0,-100.00,NW,321,2.0,14.0,76,0.00,,,-99.99,,2013-01-14 14:13:00,
2013-01-14 09:23:00,32.0,27.0,-100.00,NW,316,2.0,14.0,75,0.00,,,-99.99,,2013-01-14 14:23:00,
2013-01-14 09:33:00,32.0,27.0,-100.00,NW,320,2.0,14.0,75,0.00,,,-99.99,,2013-01-14 14:33:00,
2013-01-14 09:43:00,32.0,27.0,-100.00,WNW,302,2.0,14.0,75,0.00,,,-99.99,,2013-01-14 14:43:00,
2013-01-14 09:53:00,32.0,27.0,-100.00,WNW,302,4.0,14.0,75,0.00,,,-99.99,,2013-01-14 14:53:00,
2013-01-14 10:03:00,32.0,27.0,-100.00,WNW,299,3.0,14.0,75,0.00,,,-99.99,,2013-01-14 15:03:00,
2013-01-14 10:12:00,32.0,27.0,-100.00,NW,309,5.0,14.0,75,0.00,,,-99.99,,2013-01-14 15:12:00,
2013-01-14 10:23:00,32.0,25.0,-100.00,NNW,334,6.0,14.0,73,0.00,,,-99.99,,2013-01-14 15:23:00,
2013-01-14 10:33:00,32.0,25.0,-100.00,NW,320,5.0,14.0,73,0.00,,,-99.99,,2013-01-14 15:33:00,
2013-01-14 10:43:00,32.0,25.0,-100.00,WNW,285,3.0,14.0,73,0.00,,,-99.99,,2013-01-14 15:43:00,
2013-01-14 10:53:00,32.0,25.0,-100.00,NW,323,4.0,14.0,72,0.00,,,-99.99,,2013-01-14 15:53:00,
2013-01-14 11:03:00,32.0,25.0,-100.00,North,5,4.0,14.0,72,0.00,,,-99.99,,2013-01-14 16:03:00,
2013-01-14 11:13:00,32.0,25.0,-100.00,NW,312,2.0,14.0,72,0.00,,,-99.99,,2013-01-14 16:13:00,
2013-01-14 11:23:00,32.0,25.0,-100.00,NW,323,2.0,14.0,72,0.00,,,-99.99,,2013-01-14 16:23:00,
2013-01-14 11:33:00,32.0,25.0,-100.00,NNW,337,2.0,14.0,73,0.00,,,-99.99,,2013-01-14 16:33:00,
2013-01-14 11:43:00,32.0,25.0,-100.00,North,358,4.0,14.0,72,0.00,,,-99.99,,2013-01-14 16:43:00,
2013-01-14 11:53:00,32.0,25.0,-100.00,WNW,282,4.0,14.0,73,0.00,,,-99.99,,2013-01-14 16:53:00,
2013-01-14 12:03:00,32.0,25.0,-100.00,NNW,344,4.0,14.0,72,0.00,,,-99.99,,2013-01-14 17:03:00,
2013-01-14 12:12:00,32.0,25.0,-100.00,NW,312,4.0,14.0,71,0.00,,,-99.99,,2013-01-14 17:12:00,
2013-01-14 12:23:00,31.0,25.0,-100.00,NW,314,4.0,14.0,71,0.00,,,-99.99,,2013-01-14 17:23:00,
2013-01-14 12:33:00,33.0,25.0,-100.00,West,271,4.0,14.0,69,0.00,,,-99.99,,2013-01-14 17:33:00,
2013-01-14 12:43:00,34.0,25.0,-100.00,WNW,289,4.0,14.0,68,0.00,,,-99.99,,2013-01-14 17:43:00,
2013-01-14 12:53:00,33.0,25.0,-100.00,NNW,345,6.0,14.0,69,0.00,,,-99.99,,2013-01-14 17:53:00,
2013-01-14 13:03:00,32.0,23.0,-100.00,North,358,5.0,14.0,69,0.00,,,-99.99,,2013-01-14 18:03:00,
2013-01-14 13:13:00,34.0,25.0,-100.00,NNE,26,3.0,14.0,68,0.00,,,-99.99,,2013-01-14 18:13:00,
2013-01-14 13:23:00,34.0,25.0,-100.00,WNW,303,2.0,14.0,66,0.00,,,-99.99,,2013-01-14 18:23:00,
2013-01-14 13:33:00,34.0,25.0,-100.00,North,360,3.0,14.0,67,0.00,,,-99.99,,2013-01-14 18:33:00,
2013-01-14 13:43:00,33.0,25.0,-100.00,North,8,3.0,14.0,68,0.00,,,-99.99,,2013-01-14 18:43:00,
2013-01-14 13:52:00,34.0,25.0,-100.00,North,9,2.0,14.0,67,0.00,,,-99.99,,2013-01-14 18:52:00,
2013-01-14 14:03:00,32.0,23.0,-100.00,NNE,25,4.0,14.0,67,0.00,,,-99.99,,2013-01-14 19:03:00,
2013-01-14 14:13:00,33.0,23.0,-100.00,NNE,32,4.0,14.0,66,0.00,,,-99.99,,2013-01-14 19:13:00,
2013-01-14 14:22:00,34.0,25.0,-100.00,East,79,3.0,14.0,66,0.00,,,-99.99,,2013-01-14 19:22:00,
2013-01-14 14:33:00,34.0,25.0,-100.00,ENE,62,2.0,14.0,64,0.00,,,-99.99,,2013-01-14 19:33:00,
2013-01-14 14:43:00,34.0,23.0,-100.00,North,1,4.0,14.0,64,0.00,,,-99.99,,2013-01-14 19:43:00,
2013-01-14 14:52:00,34.0,25.0,-100.00,NNE,22,2.0,14.0,64,0.00,,,-99.99,,2013-01-14 19:52:00,
2013-01-14 15:03:00,34.0,25.0,-100.00,WNW,302,4.0,14.0,67,0.00,,,-99.99,,2013-01-14 20:03:00,
2013-01-14 15:13:00,34.0,25.0,-100.00,North,360,4.0,14.0,67,0.00,,,-99.99,,2013-01-14 20:13:00,
2013-01-14 15:23:00,33.0,25.0,-100.00,West,276,3.0,14.0,66,0.00,,,-99.99,,2013-01-14 20:23:00,
2013-01-14 15:33:00,33.0,25.0,-100.00,NW,319,4.0,14.0,67,0.00,,,-99.99,,2013-01-14 20:33:00,
2013-01-14 15:43:00,33.0,25.0,-100.00,NNE,28,2.0,14.0,66,0.00,,,-99.99,,2013-01-14 20:43:00,
2013-01-14 15:53:00,33.0,23.0,-100.00,North,355,4.0,14.0,66,0.00,,,-99.99,,2013-01-14 20:53:00,
2013-01-14 16:03:00,33.0,25.0,-100.00,NNW,340,4.0,14.0,68,0.00,,,-99.99,,2013-01-14 21:03:00,
2013-01-14 16:13:00,33.0,25.0,-100.00,NNW,344,4.0,14.0,68,0.00,,,-99.99,,2013-01-14 21:13:00,
2013-01-14 16:23:00,32.0,23.0,-100.00,NW,313,3.0,14.0,68,0.00,,,-99.99,,2013-01-14 21:23:00,
2013-01-14 16:33:00,32.0,23.0,-100.00,NW,323,3.0,14.0,67,0.00,,,-99.99,,2013-01-14 21:33:00,
2013-01-14 16:43:00,32.0,23.0,-100.00,NNW,331,3.0,14.0,67,0.00,,,-99.99,,2013-01-14 21:43:00,
2013-01-14 16:53:00,32.0,23.0,-100.00,NW,320,2.0,14.0,68,0.00,,,-99.99,,2013-01-14 21:53:00,
2013-01-14 17:03:00,32.0,23.0,-100.00,West,269,4.0,14.0,68,0.00,,,-99.99,,2013-01-14 22:03:00,
2013-01-14 17:12:00,32.0,23.0,-100.00,NNW,344,4.0,14.0,68,0.00,,,-99.99,,2013-01-14 22:12:00,
2013-01-14 17:23:00,32.0,23.0,-100.00,North,0,4.0,14.0,67,0.00,,,-99.99,,2013-01-14 22:23:00,
2013-01-14 17:33:00,32.0,23.0,-100.00,North,1,3.0,14.0,67,0.00,,,-99.99,,2013-01-14 22:33:00,
2013-01-14 17:43:00,32.0,23.0,-100.00,NNW,345,3.0,14.0,66,0.00,,,-99.99,,2013-01-14 22:43:00,
2013-01-14 17:52:00,32.0,23.0,-100.00,North,357,2.0,14.0,67,0.00,,,-99.99,,2013-01-14 22:52:00,
2013-01-14 18:03:00,34.0,25.0,-100.00,NNE,14,2.0,14.0,68,0.00,,,-99.99,,2013-01-14 23:03:00,
2013-01-14 18:12:00,32.0,23.0,-100.00,NW,323,3.0,14.0,67,0.00,,,-99.99,,2013-01-14 23:12:00,
2013-01-14 18:23:00,32.0,23.0,-100.00,NW,321,3.0,14.0,67,0.00,,,-99.99,,2013-01-14 23:23:00,
2013-01-14 18:33:00,31.0,23.0,-100.00,NNE,22,2.0,14.0,67,0.00,,,-99.99,,2013-01-14 23:33:00,
2013-01-14 18:43:00,33.0,25.0,-100.00,North,358,4.0,14.0,68,0.00,,,-99.99,,2013-01-14 23:43:00,
2013-01-14 18:53:00,31.0,23.0,-100.00,NNE,25,4.0,14.0,67,0.00,,,-99.99,,2013-01-14 23:53:00,
2013-01-14 19:03:00,31.0,23.0,-100.00,NNE,29,2.0,14.0,68,0.00,,,-99.99,,2013-01-15 00:03:00,
2013-01-14 19:12:00,31.0,23.0,-100.00,North,4,2.0,14.0,67,0.00,,,-99.99,,2013-01-15 00:12:00,
2013-01-14 19:23:00,31.0,23.0,-100.00,NNW,343,2.0,14.0,68,0.00,,,-99.99,,2013-01-15 00:23:00,
2013-01-14 19:33:00,31.0,23.0,-100.00,NNE,18,2.0,14.0,68,0.00,,,-99.99,,2013-01-15 00:33:00,
2013-01-14 19:43:00,31.0,23.0,-100.00,NNE,18,2.0,14.0,69,0.00,,,-99.99,,2013-01-15 00:43:00,
2013-01-14 19:52:00,31.0,23.0,-100.00,NE,56,1.0,14.0,68,0.00,,,-99.99,,2013-01-15 00:52:00,
2013-01-14 20:02:00,31.0,23.0,-100.00,East,79,0.0,14.0,69,0.00,,,-99.99,,2013-01-15 01:02:00,
2013-01-14 20:12:00,31.0,23.0,-100.00,ENE,69,2.0,14.0,69,0.00,,,-99.99,,2013-01-15 01:12:00,
2013-01-14 20:22:00,31.0,23.0,-100.00,NE,52,2.0,14.0,69,0.00,,,-99.99,,2013-01-15 01:22:00,
2013-01-14 20:32:00,31.0,23.0,-100.00,NNE,15,3.0,14.0,69,0.00,,,-99.99,,2013-01-15 01:32:00,
2013-01-14 20:43:00,31.0,23.0,-100.00,North,360,4.0,14.0,69,0.00,,,-99.99,,2013-01-15 01:43:00,
2013-01-14 20:52:00,31.0,23.0,-100.00,ENE,59,3.0,14.0,69,0.00,,,-99.99,,2013-01-15 01:52:00,
2013-01-14 21:02:00,32.0,25.0,-100.00,NNE,25,2.0,14.0,71,0.00,,,-99.99,,2013-01-15 02:02:00,
2013-01-14 21:12:00,31.0,23.0,-100.00,NNE,25,1.0,14.0,68,0.00,,,-99.99,,2013-01-15 02:12:00,
2013-01-14 21:22:00,33.0,27.0,-100.00,ESE,108,0.0,14.0,72,0.00,,,-99.99,,2013-01-15 02:22:00,
2013-01-14 21:33:00,30.0,23.0,-100.00,East,87,2.0,14.0,71,0.00,,,-99.99,,2013-01-15 02:33:00,
2013-01-14 21:42:00,30.0,23.0,-100.00,East,86,2.0,14.0,71,0.00,,,-99.99,,2013-01-15 02:42:00,
2013-01-14 21:52:00,30.0,23.0,-100.00,NE,55,1.0,14.0,71,0.00,,,-99.99,,2013-01-15 02:52:00,
2013-01-14 22:03:00,30.0,23.0,-100.00,East,79,0.0,14.0,72,0.00,,,-99.99,,2013-01-15 03:03:00,
2013-01-14 22:12:00,30.0,23.0,-100.00,NE,55,1.0,14.0,71,0.00,,,-99.99,,2013-01-15 03:12:00,
2013-01-14 22:22:00,30.0,23.0,-100.00,East,81,2.0,14.0,71,0.00,,,-99.99,,2013-01-15 03:22:00,
2013-01-14 22:33:00,30.0,23.0,-100.00,ENE,74,3.0,14.0,71,0.00,,,-99.99,,2013-01-15 03:33:00,
2013-01-14 22:42:00,30.0,23.0,-100.00,ESE,108,1.0,14.0,72,0.00,,,-99.99,,2013-01-15 03:42:00,
2013-01-14 22:52:00,30.0,23.0,-100.00,NE,40,0.0,14.0,72,0.00,,,-99.99,,2013-01-15 03:52:00,
2013-01-14 23:03:00,29.0,23.0,-100.00,NE,39,0.0,14.0,72,0.00,,,-99.99,,2013-01-15 04:03:00,
2013-01-14 23:12:00,31.0,25.0,-100.00,NE,48,1.0,14.0,73,0.00,,,-99.99,,2013-01-15 04:12:00,
2013-01-14 23:22:00,31.0,25.0,-100.00,NE,49,1.0,14.0,75,0.00,,,-99.99,,2013-01-15 04:22:00,
2013-01-14 23:32:00,32.0,27.0,-100.00,NNE,18,0.0,14.0,76,0.00,,,-99.99,,2013-01-15 04:32:00,
2013-01-14 23:42:00,28.0,23.0,-100.00,NNE,29,1.0,14.0,75,0.00,,,-99.99,,2013-01-15 04:42:00,
2013-01-14 23:52:00,31.0,25.0,-100.00,NNE,22,1.0,14.0,76,0.00,,,-99.99,,2013-01-15 04:52:00,